Time;durP1;ratioP1;P1;durP2;ratioP2;P2;SDS_P1;SDS_P2;PMS_P1;PMS_P2;Temp;Humidity;BMP_temperature;BMP_pressure;BME280_temperature;BME280_humidity;BME280_pressure;Samples;Min_cycle;Max_cycle;Signal;HPM_P1;HPM_P2
2023/05/05 00:00:58;;;;;;;3.97;3.33;;;16.40;99.90;;;;;;5012448;28;20414;-71
2023/05/05 00:03:25;;;;;;;3.27;2.77;;;16.40;99.90;;;;;;5012262;28;20805;-70
2023/05/05 00:05:53;;;;;;;5.17;4.03;;;16.50;99.90;;;;;;5012348;28;20427;-71
2023/05/05 00:08:19;;;;;;;3.77;3.47;;;16.40;99.90;;;;;;5012078;28;20404;-72
2023/05/05 00:10:45;;;;;;;3.10;2.90;;;16.40;99.90;;;;;;5012198;28;20473;-70
2023/05/05 00:13:11;;;;;;;3.63;3.23;;;16.40;99.90;;;;;;5012412;28;20461;-71
2023/05/05 00:15:37;;;;;;;3.97;3.57;;;16.30;99.90;;;;;;5012092;28;20459;-72
2023/05/05 00:18:03;;;;;;;4.90;3.53;;;16.30;99.90;;;;;;5014092;28;20563;-71
2023/05/05 00:20:29;;;;;;;4.70;4.00;;;16.30;99.90;;;;;;5016331;28;20638;-71
2023/05/05 00:22:55;;;;;;;5.17;3.90;;;16.20;99.90;;;;;;5016236;28;20454;-70
2023/05/05 00:25:21;;;;;;;5.20;4.70;;;16.10;99.90;;;;;;5016262;28;20475;-69
2023/05/05 00:27:46;;;;;;;4.40;3.73;;;16.00;99.90;;;;;;5015922;28;20161;-69
2023/05/05 00:30:12;;;;;;;7.00;4.07;;;16.00;99.90;;;;;;5016116;28;20164;-70
2023/05/05 00:32:38;;;;;;;6.47;4.00;;;15.90;99.90;;;;;;5016098;28;20175;-70
2023/05/05 00:35:04;;;;;;;6.00;3.80;;;15.80;99.90;;;;;;5015854;28;20214;-70
2023/05/05 00:37:30;;;;;;;4.53;4.00;;;15.80;99.90;;;;;;5015643;28;20211;-70
2023/05/05 00:39:56;;;;;;;3.70;3.30;;;15.80;99.90;;;;;;5015852;28;20802;-70
2023/05/05 00:42:21;;;;;;;2.83;2.60;;;15.80;99.90;;;;;;5014562;28;20710;-70
2023/05/05 00:44:47;;;;;;;5.33;3.80;;;15.70;99.90;;;;;;5015746;28;20164;-69
2023/05/05 00:47:14;;;;;;;4.70;4.03;;;15.80;99.90;;;;;;5015391;28;20195;-70
2023/05/05 00:49:40;;;;;;;2.83;2.60;;;15.70;99.90;;;;;;5015702;28;20246;-70
2023/05/05 00:52:07;;;;;;;5.03;3.80;;;15.70;99.90;;;;;;5015828;28;20427;-70
2023/05/05 00:54:34;;;;;;;5.27;3.87;;;15.60;99.90;;;;;;5015711;28;20164;-69
2023/05/05 00:57:01;;;;;;;3.57;3.27;;;15.50;99.90;;;;;;5015318;28;20791;-70
2023/05/05 00:59:28;;;;;;;3.83;3.43;;;15.50;99.90;;;;;;5015544;28;20485;-69
2023/05/05 01:01:54;;;;;;;3.47;3.17;;;15.40;99.90;;;;;;5015116;28;20411;-71
2023/05/05 01:04:19;;;;;;;6.10;4.77;;;15.30;99.90;;;;;;5015560;28;20457;-69
2023/05/05 01:07:07;;;;;;;3.93;3.50;;;15.30;99.90;;;;;;5015188;28;20215;-69
2023/05/05 01:09:36;;;;;;;4.27;3.87;;;15.20;99.90;;;;;;5015428;28;20161;-70
2023/05/05 01:12:29;;;;;;;3.63;3.33;;;15.10;99.90;;;;;;5015184;28;20505;-69
2023/05/05 01:15:06;;;;;;;4.70;4.30;;;14.90;99.90;;;;;;5015297;28;20407;-70
2023/05/05 01:17:40;;;;;;;4.90;3.87;;;14.80;99.90;;;;;;5015034;28;20426;-70
2023/05/05 01:20:27;;;;;;;9.80;3.10;;;14.70;99.90;;;;;;5015484;28;20438;-69
2023/05/05 01:23:00;;;;;;;3.43;3.10;;;14.70;99.90;;;;;;5015113;28;20439;-70
2023/05/05 01:25:44;;;;;;;4.23;3.83;;;14.60;99.90;;;;;;5030297;28;20419;-70
2023/05/05 01:28:28;;;;;;;4.23;3.83;;;14.60;99.90;;;;;;5014740;28;20482;-71
2023/05/05 01:31:31;;;;;;;4.67;3.47;;;14.60;99.90;;;;;;5014468;28;20465;-70
2023/05/05 01:34:00;;;;;;;3.97;3.33;;;14.50;99.90;;;;;;5014907;28;20446;-70
2023/05/05 01:36:34;;;;;;;4.10;3.70;;;14.50;99.90;;;;;;5014879;28;20781;-69
2023/05/05 01:39:02;;;;;;;6.30;5.27;;;14.40;99.90;;;;;;5014792;28;20408;-69
2023/05/05 01:41:36;;;;;;;6.77;4.37;;;14.30;99.90;;;;;;5014983;28;20427;-70
2023/05/05 01:44:05;;;;;;;4.00;3.20;;;14.40;99.90;;;;;;5014475;28;20863;-69
2023/05/05 01:46:32;;;;;;;5.00;4.50;;;14.40;99.90;;;;;;5014637;28;20436;-69
2023/05/05 01:48:58;;;;;;;4.53;3.90;;;14.40;99.90;;;;;;5014394;28;20441;-70
2023/05/05 01:51:26;;;;;;;4.90;4.33;;;14.40;99.90;;;;;;5014403;28;20818;-70
2023/05/05 01:53:53;;;;;;;4.47;4.07;;;14.30;99.90;;;;;;5014620;28;20422;-70
2023/05/05 01:56:21;;;;;;;4.70;4.13;;;14.30;99.90;;;;;;5014330;28;20924;-70
2023/05/05 01:58:48;;;;;;;4.60;3.93;;;14.20;99.90;;;;;;5014129;28;20429;-70
2023/05/05 02:01:14;;;;;;;4.03;3.70;;;14.20;99.90;;;;;;5014456;28;20835;-69
2023/05/05 02:03:41;;;;;;;3.97;3.50;;;14.20;99.90;;;;;;5014284;28;20972;-70
2023/05/05 02:06:09;;;;;;;3.90;3.50;;;14.20;99.90;;;;;;5014311;28;20423;-70
2023/05/05 02:08:36;;;;;;;4.40;3.60;;;14.10;99.90;;;;;;5013991;28;20403;-70
2023/05/05 02:11:03;;;;;;;5.63;3.60;;;14.10;99.90;;;;;;5014269;28;20459;-70
2023/05/05 02:13:31;;;;;;;5.10;4.07;;;14.10;99.90;;;;;;5013971;28;20426;-70
2023/05/05 02:15:57;;;;;;;5.80;3.87;;;14.10;99.90;;;;;;5014066;28;20431;-70
2023/05/05 02:18:24;;;;;;;6.23;4.20;;;14.10;99.90;;;;;;5013798;28;20545;-69
2023/05/05 02:20:51;;;;;;;5.80;3.77;;;14.10;99.90;;;;;;5013733;28;20427;-69
2023/05/05 02:23:17;;;;;;;5.30;4.73;;;14.20;99.90;;;;;;5013866;28;20439;-69
2023/05/05 02:25:48;;;;;;;8.70;4.87;;;14.20;99.90;;;;;;5013821;28;20813;-70
2023/05/05 02:28:26;;;;;;;3.73;3.43;;;14.30;99.90;;;;;;5013582;28;20168;-69
2023/05/05 02:30:56;;;;;;;4.93;4.20;;;14.30;99.90;;;;;;5013835;28;20435;-69
2023/05/05 02:33:23;;;;;;;6.00;4.40;;;14.40;99.90;;;;;;5013706;28;20414;-70
2023/05/05 02:35:52;;;;;;;4.83;4.20;;;14.40;99.90;;;;;;5013679;28;20430;-70
2023/05/05 02:38:18;;;;;;;4.30;3.90;;;14.30;99.90;;;;;;5013501;28;20462;-70
2023/05/05 02:40:46;;;;;;;5.27;3.47;;;14.30;99.90;;;;;;5012564;28;20415;-70
2023/05/05 02:43:18;;;;;;;5.33;3.80;;;14.20;99.90;;;;;;5013518;28;20453;-70
2023/05/05 02:45:43;;;;;;;6.87;5.57;;;14.20;99.90;;;;;;5013503;28;20442;-70
2023/05/05 02:48:11;;;;;;;7.13;5.70;;;14.10;99.90;;;;;;5013336;28;20489;-70
2023/05/05 02:50:37;;;;;;;7.17;5.63;;;14.10;99.90;;;;;;5013517;28;20203;-70
2023/05/05 02:53:03;;;;;;;4.37;4.00;;;14.00;99.90;;;;;;5028970;28;20415;-69
2023/05/05 02:55:35;;;;;;;5.60;4.70;;;14.00;99.90;;;;;;5032493;28;20210;-70
2023/05/05 02:58:15;;;;;;;4.47;4.07;;;13.90;99.90;;;;;;5033005;28;20198;-70
2023/05/05 03:00:56;;;;;;;7.70;4.73;;;13.90;99.90;;;;;;5033211;28;20521;-70
2023/05/05 03:03:39;;;;;;;6.17;4.83;;;13.90;99.90;;;;;;5033036;28;20449;-69
2023/05/05 03:06:15;;;;;;;7.23;5.10;;;13.90;99.90;;;;;;5033106;28;20517;-69
2023/05/05 03:08:54;;;;;;;10.83;8.30;;;14.00;99.90;;;;;;5032753;28;20407;-70
2023/05/05 03:11:20;;;;;;;11.10;7.80;;;14.00;99.90;;;;;;5032658;28;20885;-71
2023/05/05 03:13:50;;;;;;;7.13;6.10;;;14.00;99.90;;;;;;5032853;28;20456;-70
2023/05/05 03:16:17;;;;;;;6.00;4.40;;;14.00;99.90;;;;;;5032973;28;20278;-70
2023/05/05 03:18:45;;;;;;;6.27;5.27;;;13.90;99.90;;;;;;5032726;28;20417;-70
2023/05/05 03:21:12;;;;;;;6.30;4.87;;;14.00;99.90;;;;;;5032769;28;20845;-70
2023/05/05 03:23:37;;;;;;;6.17;5.00;;;14.00;99.90;;;;;;5032662;28;20548;-69
2023/05/05 03:26:03;;;;;;;5.70;4.27;;;13.90;99.90;;;;;;5032448;28;20557;-70
2023/05/05 03:28:29;;;;;;;5.07;4.53;;;13.90;99.90;;;;;;5032408;28;20171;-69
2023/05/05 03:30:55;;;;;;;6.70;5.57;;;13.90;99.90;;;;;;5032242;28;20174;-70
2023/05/05 03:33:20;;;;;;;6.17;5.30;;;13.90;99.90;;;;;;5032475;28;20218;-70
2023/05/05 03:35:46;;;;;;;8.83;5.40;;;13.80;99.90;;;;;;5032184;28;20426;-70
2023/05/05 03:38:11;;;;;;;6.73;5.33;;;13.70;99.90;;;;;;5032212;28;20230;-71
2023/05/05 03:40:37;;;;;;;6.20;4.60;;;13.60;99.90;;;;;;5032245;28;20248;-70
2023/05/05 03:43:02;;;;;;;4.60;4.10;;;13.60;99.90;;;;;;5032210;28;20219;-70
2023/05/05 03:45:28;;;;;;;6.00;5.40;;;13.60;99.90;;;;;;5032295;28;20186;-69
2023/05/05 03:47:53;;;;;;;8.07;5.50;;;13.50;99.90;;;;;;5032211;28;20605;-70
2023/05/05 03:50:19;;;;;;;7.60;4.90;;;13.50;99.90;;;;;;5032326;28;20179;-70
2023/05/05 03:52:44;;;;;;;5.30;4.33;;;13.40;99.90;;;;;;5031844;28;20168;-71
2023/05/05 03:55:10;;;;;;;7.93;4.40;;;13.40;99.90;;;;;;5032130;28;20368;-70
2023/05/05 03:57:35;;;;;;;5.23;4.73;;;13.30;99.90;;;;;;5031871;28;20175;-70
2023/05/05 04:00:01;;;;;;;6.47;4.87;;;13.30;99.90;;;;;;5032137;28;20708;-70
2023/05/05 04:02:26;;;;;;;5.70;4.60;;;13.40;99.90;;;;;;5032047;28;20210;-69
2023/05/05 04:04:52;;;;;;;8.70;6.60;;;13.40;99.90;;;;;;5032128;28;20160;-69
2023/05/05 04:07:17;;;;;;;74.83;38.73;;;13.40;99.90;;;;;;5031529;28;20191;-69
2023/05/05 04:09:43;;;;;;;55.73;33.33;;;13.40;99.90;;;;;;5031853;28;20163;-70
2023/05/05 04:12:12;;;;;;;21.20;12.70;;;13.40;99.90;;;;;;5032060;28;20305;-71
2023/05/05 04:14:39;;;;;;;9.40;6.20;;;13.40;99.90;;;;;;5032204;28;20199;-71
2023/05/05 04:17:07;;;;;;;6.57;5.97;;;13.50;99.90;;;;;;5031471;28;20539;-70
2023/05/05 04:19:32;;;;;;;5.30;4.73;;;13.50;99.90;;;;;;5032092;28;20178;-69
2023/05/05 04:21:59;;;;;;;7.40;4.70;;;13.60;99.90;;;;;;5032012;28;20402;-70
2023/05/05 04:24:25;;;;;;;5.77;3.63;;;13.70;99.90;;;;;;5031892;28;20167;-70
2023/05/05 04:26:51;;;;;;;4.73;4.27;;;13.90;99.90;;;;;;5031532;28;21096;-70
2023/05/05 04:29:17;;;;;;;8.33;4.50;;;14.00;99.90;;;;;;5047152;28;20502;-70
2023/05/05 04:31:43;;;;;;;5.73;5.13;;;14.10;99.90;;;;;;5031761;28;20402;-70
2023/05/05 04:34:08;;;;;;;5.13;4.63;;;14.10;99.90;;;;;;5031774;28;20417;-69
2023/05/05 04:36:34;;;;;;;5.30;4.80;;;14.20;99.90;;;;;;5031644;28;20785;-69
2023/05/05 04:39:00;;;;;;;9.53;4.70;;;14.20;99.90;;;;;;5031223;28;20546;-70
2023/05/05 04:41:26;;;;;;;13.20;4.83;;;14.20;99.90;;;;;;5031960;28;20651;-69
2023/05/05 04:43:52;;;;;;;7.30;4.93;;;14.10;99.90;;;;;;5031644;28;20285;-71
2023/05/05 04:46:17;;;;;;;4.23;3.90;;;14.30;99.90;;;;;;5031553;28;20931;-69
2023/05/05 04:48:43;;;;;;;5.87;4.90;;;14.30;99.90;;;;;;5031364;28;20409;-70
2023/05/05 04:51:09;;;;;;;8.30;5.53;;;14.40;99.90;;;;;;5031866;28;20179;-69
2023/05/05 04:53:34;;;;;;;4.53;4.10;;;14.40;99.90;;;;;;5031465;28;20182;-69
2023/05/05 04:56:00;;;;;;;4.20;3.63;;;14.50;99.90;;;;;;5031436;28;20199;-70
2023/05/05 04:58:26;;;;;;;9.40;7.10;;;14.60;99.90;;;;;;5031311;28;20697;-70
2023/05/05 05:00:52;;;;;;;8.93;6.70;;;14.60;99.90;;;;;;5031665;28;20210;-69
2023/05/05 05:03:17;;;;;;;41.70;24.93;;;14.80;99.90;;;;;;5031640;28;20489;-69
2023/05/05 05:05:43;;;;;;;21.80;13.90;;;14.80;99.90;;;;;;5034176;28;20550;-70
2023/05/05 05:08:09;;;;;;;12.13;8.40;;;14.90;99.90;;;;;;5034746;28;20171;-69
2023/05/05 05:10:35;;;;;;;10.53;7.03;;;15.00;99.90;;;;;;5035136;28;20180;-69
2023/05/05 05:13:00;;;;;;;6.37;5.23;;;15.10;99.90;;;;;;5035102;28;20776;-69
2023/05/05 05:15:26;;;;;;;7.17;5.13;;;15.30;99.90;;;;;;5034919;28;20409;-69
2023/05/05 05:17:51;;;;;;;5.93;5.20;;;15.40;99.90;;;;;;5034728;28;20175;-70
2023/05/05 05:20:17;;;;;;;6.23;4.60;;;15.60;99.90;;;;;;5034921;28;20633;-70
2023/05/05 05:22:43;;;;;;;6.80;4.40;;;15.70;99.90;;;;;;5034809;28;20198;-70
2023/05/05 05:25:09;;;;;;;4.50;4.10;;;15.90;99.90;;;;;;5034856;28;20398;-70
2023/05/05 05:27:35;;;;;;;6.70;5.13;;;16.20;99.90;;;;;;5034632;28;20934;-70
2023/05/05 05:30:00;;;;;;;6.13;5.20;;;16.50;99.90;;;;;;5034568;28;20251;-69
2023/05/05 05:32:26;;;;;;;6.23;5.13;;;16.80;99.90;;;;;;5034780;28;20168;-69
2023/05/05 05:34:51;;;;;;;5.50;4.37;;;17.00;99.90;;;;;;5034450;28;20167;-69
2023/05/05 05:37:17;;;;;;;7.70;5.30;;;17.30;99.90;;;;;;5034366;28;20203;-69
2023/05/05 05:39:42;;;;;;;6.80;4.73;;;17.60;99.90;;;;;;5034599;28;20566;-70
2023/05/05 05:42:08;;;;;;;8.40;4.90;;;18.00;99.90;;;;;;5034634;28;20184;-70
2023/05/05 05:44:33;;;;;;;6.07;5.03;;;18.40;99.90;;;;;;5034491;28;20214;-69
2023/05/05 05:46:59;;;;;;;7.20;6.10;;;18.80;99.90;;;;;;5034262;28;20183;-70
2023/05/05 05:49:24;;;;;;;5.80;5.20;;;19.00;99.90;;;;;;5034588;28;20682;-71
2023/05/05 05:51:50;;;;;;;6.17;5.37;;;19.30;99.90;;;;;;5034272;28;20164;-69
2023/05/05 05:54:15;;;;;;;7.40;4.67;;;19.50;99.90;;;;;;5034385;28;20163;-69
2023/05/05 05:56:41;;;;;;;4.43;4.00;;;19.90;99.90;;;;;;5034156;28;20191;-70
2023/05/05 05:59:08;;;;;;;6.57;5.30;;;20.10;99.90;;;;;;5033850;28;20214;-70
2023/05/05 06:01:34;;;;;;;6.27;5.30;;;20.20;99.90;;;;;;5034208;28;20160;-70
2023/05/05 06:04:00;;;;;;;11.67;6.03;;;20.40;99.90;;;;;;5034151;28;20955;-70
2023/05/05 06:06:26;;;;;;;6.43;5.83;;;20.50;99.90;;;;;;5033981;28;20215;-70
2023/05/05 06:08:52;;;;;;;8.00;6.10;;;20.80;99.90;;;;;;5033766;28;20163;-66
2023/05/05 06:11:17;;;;;;;8.03;6.30;;;21.20;99.90;;;;;;5033899;28;20409;-67
2023/05/05 06:13:43;;;;;;;6.67;5.37;;;21.60;99.90;;;;;;5033505;28;20262;-66
2023/05/05 06:16:08;;;;;;;6.07;5.37;;;22.00;99.90;;;;;;5033631;28;20196;-67
2023/05/05 06:18:34;;;;;;;7.10;6.30;;;22.40;99.90;;;;;;5033568;28;20222;-67
2023/05/05 06:21:00;;;;;;;5.87;5.27;;;22.60;99.90;;;;;;5033801;28;20167;-68
2023/05/05 06:23:26;;;;;;;7.30;6.60;;;23.00;99.90;;;;;;5033764;28;20717;-66
2023/05/05 06:25:53;;;;;;;5.83;5.23;;;23.70;99.90;;;;;;5033666;28;20513;-69
2023/05/05 06:28:19;;;;;;;7.43;6.73;;;24.50;99.90;;;;;;5033440;28;20209;-67
2023/05/05 06:30:44;;;;;;;6.50;5.33;;;25.40;99.90;;;;;;5033677;28;20395;-68
2023/05/05 06:33:10;;;;;;;5.60;5.10;;;26.20;99.90;;;;;;5033640;28;20637;-67
2023/05/05 06:35:35;;;;;;;6.50;5.10;;;26.70;99.90;;;;;;5033472;28;20230;-67
2023/05/05 06:38:01;;;;;;;10.60;5.20;;;27.00;99.90;;;;;;5033288;28;20167;-68
2023/05/05 06:40:26;;;;;;;5.93;5.43;;;27.40;97.30;;;;;;5033151;28;20214;-67
2023/05/05 06:42:52;;;;;;;5.10;4.60;;;27.80;94.30;;;;;;5033341;28;20226;-67
2023/05/05 06:45:17;;;;;;;5.00;4.60;;;28.10;91.90;;;;;;5033317;28;20199;-67
2023/05/05 06:47:43;;;;;;;5.40;4.67;;;28.50;90.40;;;;;;5033145;28;20164;-67
2023/05/05 06:50:09;;;;;;;6.10;4.90;;;29.00;88.50;;;;;;5033420;28;20592;-66
2023/05/05 06:52:34;;;;;;;7.57;6.60;;;29.70;83.00;;;;;;5033294;28;20254;-67
2023/05/05 06:55:00;;;;;;;6.20;5.60;;;30.20;72.90;;;;;;5033152;28;20407;-68
2023/05/05 06:57:26;;;;;;;9.10;5.40;;;30.00;65.60;;;;;;5032774;28;20218;-69
2023/05/05 06:59:52;;;;;;;5.73;5.20;;;30.30;64.50;;;;;;5033154;28;20702;-69
2023/05/05 07:02:18;;;;;;;6.50;5.03;;;30.40;60.10;;;;;;5032998;28;20531;-67
2023/05/05 07:04:43;;;;;;;7.03;5.90;;;30.60;60.00;;;;;;5033006;28;20407;-68
2023/05/05 07:07:09;;;;;;;5.80;4.50;;;30.10;57.80;;;;;;5032703;28;20188;-69
2023/05/05 07:09:34;;;;;;;8.50;6.67;;;30.00;58.20;;;;;;5032939;28;20656;-69
2023/05/05 07:12:00;;;;;;;5.50;5.10;;;29.30;57.30;;;;;;5032810;28;20179;-67
2023/05/05 07:14:26;;;;;;;6.90;6.27;;;29.20;59.10;;;;;;5048270;28;20163;-66
2023/05/05 07:16:52;;;;;;;6.40;5.83;;;29.10;59.30;;;;;;5032501;28;20432;-68
2023/05/05 07:19:17;;;;;;;7.00;6.30;;;28.70;59.00;;;;;;5032685;28;20533;-67
2023/05/05 07:21:43;;;;;;;5.47;4.97;;;28.60;60.30;;;;;;5032666;28;20167;-67
2023/05/05 07:24:08;;;;;;;6.97;5.10;;;28.70;61.60;;;;;;5032426;28;20668;-67
2023/05/05 07:26:34;;;;;;;5.87;5.37;;;29.00;62.00;;;;;;5031908;28;20199;-68
2023/05/05 07:29:01;;;;;;;9.23;5.17;;;29.30;60.90;;;;;;5031721;28;20221;-70
2023/05/05 07:31:26;;;;;;;6.90;6.20;;;29.90;61.60;;;;;;5032534;28;20224;-69
2023/05/05 07:33:52;;;;;;;10.67;6.97;;;30.00;57.90;;;;;;5032384;28;20497;-71
2023/05/05 07:36:18;;;;;;;5.97;4.67;;;29.90;56.70;;;;;;5032341;28;20188;-67
2023/05/05 07:38:43;;;;;;;7.83;6.00;;;29.80;57.30;;;;;;5031647;28;20257;-67
2023/05/05 07:41:11;;;;;;;6.43;4.53;;;29.60;57.80;;;;;;5032032;28;20174;-69
2023/05/05 07:43:39;;;;;;;5.93;4.83;;;29.50;57.30;;;;;;5047487;28;20207;-69
2023/05/05 07:46:05;;;;;;;6.00;5.03;;;29.60;57.80;;;;;;5032224;28;20505;-69
2023/05/05 07:48:30;;;;;;;5.70;5.20;;;30.00;57.80;;;;;;5031739;28;20540;-68
2023/05/05 07:50:56;;;;;;;5.97;5.13;;;30.10;56.80;;;;;;5032188;28;20191;-69
2023/05/05 07:53:21;;;;;;;5.87;5.27;;;30.60;57.10;;;;;;5032151;28;20625;-69
2023/05/05 07:55:47;;;;;;;7.97;6.10;;;31.20;56.50;;;;;;5032137;28;20187;-68
2023/05/05 07:58:12;;;;;;;6.03;5.40;;;31.40;54.60;;;;;;5031903;28;20249;-67
2023/05/05 08:00:38;;;;;;;7.10;4.90;;;31.70;54.40;;;;;;5032058;28;20247;-67
2023/05/05 08:03:04;;;;;;;6.13;5.53;;;32.20;53.70;;;;;;5031979;28;20227;-69
2023/05/05 08:05:29;;;;;;;5.83;5.30;;;32.20;53.10;;;;;;5031473;28;20176;-68
2023/05/05 08:07:55;;;;;;;6.30;5.70;;;31.90;52.80;;;;;;5031658;28;20255;-68
2023/05/05 08:10:21;;;;;;;6.60;5.90;;;31.70;52.90;;;;;;5032035;28;20246;-70
2023/05/05 08:12:46;;;;;;;7.40;5.80;;;31.30;52.80;;;;;;5031862;28;20194;-69
2023/05/05 08:15:12;;;;;;;6.30;5.70;;;31.00;52.80;;;;;;5031791;28;20168;-69
2023/05/05 08:17:47;;;;;;;5.50;5.00;;;30.80;53.10;;;;;;5031633;28;20171;-68
2023/05/05 08:20:14;;;;;;;6.80;6.20;;;30.50;53.10;;;;;;5031751;28;20202;-70
2023/05/05 08:22:41;;;;;;;5.50;5.00;;;30.30;53.60;;;;;;5031726;28;20818;-68
2023/05/05 08:25:07;;;;;;;8.10;7.23;;;30.20;54.20;;;;;;5031862;28;20410;-69
2023/05/05 08:27:34;;;;;;;7.53;5.90;;;30.30;53.60;;;;;;5031357;28;20445;-69
2023/05/05 08:30:00;;;;;;;6.73;5.63;;;30.80;54.40;;;;;;5031844;28;20904;-70
2023/05/05 08:32:26;;;;;;;6.03;5.43;;;31.50;53.20;;;;;;5031749;28;20927;-69
2023/05/05 08:34:51;;;;;;;6.80;6.03;;;32.10;52.60;;;;;;5031592;28;20409;-69
2023/05/05 08:37:17;;;;;;;6.47;5.17;;;32.80;51.60;;;;;;5031502;28;20183;-69
2023/05/05 08:39:43;;;;;;;8.43;6.77;;;33.20;50.30;;;;;;5033212;28;20187;-68
2023/05/05 08:42:09;;;;;;;5.30;4.80;;;33.60;49.90;;;;;;5035642;28;20409;-69
2023/05/05 08:44:35;;;;;;;6.77;6.10;;;34.30;49.10;;;;;;5035592;28;20398;-66
2023/05/05 08:47:01;;;;;;;5.43;4.93;;;35.20;47.80;;;;;;5035273;28;20433;-66
2023/05/05 08:49:35;;;;;;;7.67;5.10;;;36.70;46.60;;;;;;5035457;28;20408;-69
2023/05/05 08:52:04;;;;;;;9.03;8.20;;;38.50;45.10;;;;;;5035604;28;20163;-69
2023/05/05 08:54:33;;;;;;;8.00;7.13;;;39.40;40.20;;;;;;5035473;28;20445;-67
2023/05/05 08:57:00;;;;;;;10.87;8.80;;;38.70;37.60;;;;;;5035052;28;20415;-68
2023/05/05 08:59:29;;;;;;;6.07;5.47;;;37.60;37.50;;;;;;5035360;28;20401;-70
2023/05/05 09:01:59;;;;;;;6.00;5.40;;;37.50;39.30;;;;;;5035246;28;20895;-67
2023/05/05 09:04:25;;;;;;;4.97;4.57;;;38.10;39.40;;;;;;5035212;28;20528;-67
2023/05/05 09:06:51;;;;;;;6.57;5.93;;;37.90;38.50;;;;;;5050252;28;20412;-68
2023/05/05 09:09:17;;;;;;;8.30;6.50;;;37.50;39.00;;;;;;5035060;28;20878;-67
2023/05/05 09:11:44;;;;;;;6.53;5.70;;;36.90;39.10;;;;;;5035025;28;20171;-68
2023/05/05 09:14:10;;;;;;;5.80;4.80;;;37.00;39.50;;;;;;5035074;28;20409;-68
2023/05/05 09:16:38;;;;;;;4.57;4.10;;;37.40;40.20;;;;;;5034631;28;20524;-67
2023/05/05 09:19:04;;;;;;;5.20;4.80;;;38.40;40.40;;;;;;5034409;28;20556;-68
2023/05/05 09:21:30;;;;;;;5.70;5.20;;;40.50;38.80;;;;;;5034957;28;20414;-68
2023/05/05 09:24:12;;;;;;;6.27;5.77;;;42.40;36.60;;;;;;5034848;28;20195;-68
2023/05/05 09:26:43;;;;;;;4.37;4.00;;;43.40;34.00;;;;;;5033412;28;20409;-68
2023/05/05 09:29:09;;;;;;;5.20;4.70;;;43.40;33.50;;;;;;5034274;28;20889;-68
2023/05/05 09:31:36;;;;;;;4.50;4.20;;;44.50;33.20;;;;;;5034652;28;20417;-68
2023/05/05 09:34:14;;;;;;;4.90;4.50;;;46.20;32.30;;;;;;5034745;28;20160;-68
2023/05/05 09:36:42;;;;;;;5.90;5.27;;;45.90;29.70;;;;;;5034540;28;20397;-69
2023/05/05 09:39:08;;;;;;;4.70;4.30;;;44.40;29.40;;;;;;5034305;28;20385;-67
2023/05/05 09:41:43;;;;;;;5.40;5.00;;;42.60;29.90;;;;;;5034462;28;20737;-68
2023/05/05 09:44:09;;;;;;;5.93;5.43;;;40.90;31.00;;;;;;5034397;28;20798;-68
2023/05/05 09:46:35;;;;;;;5.10;4.60;;;39.40;32.20;;;;;;5034317;28;20414;-67
2023/05/05 09:49:18;;;;;;;6.50;5.90;;;38.20;33.40;;;;;;5032846;28;20406;-68
2023/05/05 09:51:44;;;;;;;6.07;5.57;;;36.90;34.90;;;;;;5032517;28;20174;-68
2023/05/05 09:54:24;;;;;;;5.90;5.30;;;35.70;36.30;;;;;;5034286;28;20402;-67
2023/05/05 09:56:51;;;;;;;6.40;5.80;;;34.40;37.40;;;;;;5034000;28;20428;-68
2023/05/05 09:59:17;;;;;;;5.87;5.37;;;33.40;38.70;;;;;;5049582;28;20898;-68
2023/05/05 10:01:43;;;;;;;6.57;5.97;;;32.50;39.90;;;;;;5034072;28;20419;-67
2023/05/05 10:04:27;;;;;;;5.87;5.30;;;31.60;40.80;;;;;;5034088;28;20787;-67
2023/05/05 10:06:57;;;;;;;7.03;6.37;;;30.80;42.10;;;;;;5033491;28;20192;-68
2023/05/05 10:09:23;;;;;;;6.00;5.17;;;30.10;43.60;;;;;;5034114;28;20404;-69
2023/05/05 10:11:49;;;;;;;4.40;4.03;;;29.60;44.50;;;;;;5033946;28;20429;-66
2023/05/05 10:14:16;;;;;;;6.90;5.63;;;29.50;45.70;;;;;;5034044;28;20774;-67
2023/05/05 10:16:47;;;;;;;5.50;5.00;;;29.40;46.50;;;;;;5033840;28;20238;-68
2023/05/05 10:19:15;;;;;;;6.10;5.37;;;29.40;46.60;;;;;;5033775;28;20434;-67
2023/05/05 10:21:44;;;;;;;5.93;5.37;;;29.40;46.80;;;;;;5033872;28;20409;-66
2023/05/05 10:24:16;;;;;;;5.40;4.83;;;29.50;47.00;;;;;;5033680;28;21092;-67
2023/05/05 10:26:43;;;;;;;9.70;4.67;;;29.70;47.20;;;;;;5033627;28;20441;-66
2023/05/05 10:29:19;;;;;;;4.63;4.10;;;30.00;47.50;;;;;;5033450;28;20437;-67
2023/05/05 10:31:48;;;;;;;5.50;5.00;;;30.30;46.50;;;;;;5033582;28;20481;-67
2023/05/05 10:34:36;;;;;;;5.00;4.50;;;30.40;45.70;;;;;;5032268;28;20410;-68
2023/05/05 10:37:03;;;;;;;5.23;4.73;;;30.40;45.40;;;;;;5033571;28;20938;-68
2023/05/05 10:39:30;;;;;;;4.83;4.40;;;30.20;45.30;;;;;;5033479;28;20416;-67
2023/05/05 10:42:00;;;;;;;4.63;4.23;;;29.80;45.20;;;;;;5033448;28;20394;-68
2023/05/05 10:44:29;;;;;;;10.70;5.40;;;29.40;45.80;;;;;;5033334;28;20450;-67
2023/05/05 10:46:54;;;;;;;6.37;4.30;;;28.90;46.60;;;;;;5033111;28;20780;-68
2023/05/05 10:49:43;;;;;;;5.23;4.73;;;28.30;47.70;;;;;;5033314;28;20406;-68
2023/05/05 10:52:18;;;;;;;10.40;5.50;;;27.60;49.10;;;;;;5033453;28;20168;-68
2023/05/05 10:54:51;;;;;;;5.90;5.40;;;27.00;50.70;;;;;;5033314;28;20459;-69
2023/05/05 10:57:19;;;;;;;6.00;4.80;;;26.40;52.60;;;;;;5032637;28;20481;-68
2023/05/05 10:59:46;;;;;;;3.70;3.23;;;25.90;55.20;;;;;;5033064;28;20481;-68
2023/05/05 11:02:19;;;;;;;3.13;2.37;;;25.30;56.50;;;;;;5032170;28;20410;-68
2023/05/05 11:05:03;;;;;;;4.90;2.63;;;24.70;58.60;;;;;;5033059;28;20822;-68
2023/05/05 11:07:28;;;;;;;2.87;2.60;;;24.00;64.10;;;;;;5032776;28;20552;-68
2023/05/05 11:09:55;;;;;;;5.17;3.47;;;23.40;75.70;;;;;;5032879;28;20493;-68
2023/05/05 11:12:20;;;;;;;5.87;2.40;;;22.80;90.90;;;;;;5032806;28;20218;-67
2023/05/05 11:14:46;;;;;;;3.13;1.43;;;22.30;95.00;;;;;;5048034;28;20939;-67
2023/05/05 11:17:46;;;;;;;2.07;1.20;;;21.70;96.10;;;;;;5032458;28;20184;-67
2023/05/05 11:20:12;;;;;;;1.10;0.90;;;21.00;98.80;;;;;;5032839;28;20163;-67
2023/05/05 11:23:19;;;;;;;1.77;0.80;;;20.50;99.90;;;;;;5032885;28;20773;-67
2023/05/05 11:25:44;;;;;;;4.00;1.40;;;20.00;99.90;;;;;;5010395;28;20761;-68
2023/05/05 11:28:15;;;;;;;3.03;1.50;;;19.60;99.90;;;;;;5028781;28;20505;-67
2023/05/05 11:30:55;;;;;;;5.57;1.60;;;19.20;99.90;;;;;;5032482;28;20217;-67
2023/05/05 11:33:31;;;;;;;3.00;2.00;;;18.90;99.90;;;;;;5032889;28;20903;-68
2023/05/05 11:36:03;;;;;;;4.90;1.77;;;18.70;99.90;;;;;;5032457;28;20429;-67
2023/05/05 11:38:41;;;;;;;3.83;1.30;;;18.70;99.90;;;;;;5032304;28;20407;-68
2023/05/05 11:41:15;;;;;;;3.23;2.23;;;18.70;99.90;;;;;;5032537;28;20398;-67
2023/05/05 11:43:41;;;;;;;1.77;1.27;;;18.70;99.90;;;;;;5032367;28;20481;-67
2023/05/05 11:46:11;;;;;;;2.87;1.40;;;18.70;99.90;;;;;;5032322;28;20927;-68
2023/05/05 11:48:47;;;;;;;2.27;1.50;;;18.70;99.90;;;;;;5030751;28;20410;-68
2023/05/05 11:51:13;;;;;;;2.10;1.90;;;18.70;99.90;;;;;;5047359;28;20409;-67
2023/05/05 11:53:43;;;;;;;1.90;1.70;;;18.70;99.90;;;;;;5032249;28;20430;-67
2023/05/05 11:56:09;;;;;;;2.60;2.40;;;18.90;99.90;;;;;;5032111;28;20423;-67
2023/05/05 11:58:35;;;;;;;2.90;1.60;;;19.10;99.90;;;;;;5031878;28;20959;-66
2023/05/05 12:01:07;;;;;;;2.90;2.20;;;19.70;99.90;;;;;;5032130;28;20430;-67
2023/05/05 12:03:34;;;;;;;5.33;2.73;;;20.50;99.90;;;;;;5032195;28;20199;-66
2023/05/05 12:06:00;;;;;;;2.07;1.93;;;21.20;99.90;;;;;;5031979;28;20414;-67
2023/05/05 12:08:27;;;;;;;2.10;1.90;;;21.90;99.90;;;;;;5031824;28;20390;-67
2023/05/05 12:11:00;;;;;;;1.83;1.40;;;22.80;99.90;;;;;;5032095;28;20182;-67
2023/05/05 12:13:25;;;;;;;3.07;1.80;;;23.70;99.90;;;;;;5031606;28;20807;-67
2023/05/05 12:15:51;;;;;;;2.13;1.90;;;24.10;99.90;;;;;;5031938;28;20429;-67
2023/05/05 12:18:18;;;;;;;1.73;1.63;;;24.40;99.90;;;;;;5031781;28;20164;-66
2023/05/05 12:20:43;;;;;;;1.57;1.47;;;24.70;99.90;;;;;;5032021;28;20170;-67
2023/05/05 12:23:11;;;;;;;2.13;1.97;;;25.00;99.90;;;;;;5031833;28;20529;-66
2023/05/05 12:25:38;;;;;;;2.20;1.80;;;25.60;99.90;;;;;;5031822;28;20202;-67
2023/05/05 12:28:07;;;;;;;2.03;1.90;;;26.30;99.90;;;;;;5031534;28;20406;-67
2023/05/05 12:30:34;;;;;;;5.77;1.97;;;26.80;99.90;;;;;;5031852;28;20402;-67
2023/05/05 12:33:04;;;;;;;2.90;1.83;;;27.10;99.90;;;;;;5031828;28;20417;-67
2023/05/05 12:35:31;;;;;;;2.20;2.00;;;27.20;99.90;;;;;;5031908;28;20405;-67
2023/05/05 12:37:57;;;;;;;3.17;2.50;;;27.30;99.90;;;;;;5031517;28;20413;-68
2023/05/05 12:40:45;;;;;;;2.80;1.77;;;27.20;98.70;;;;;;5031877;28;20488;-68
2023/05/05 12:43:31;;;;;;;2.40;2.20;;;27.10;99.70;;;;;;5031492;28;20449;-67
2023/05/05 12:45:58;;;;;;;6.07;3.00;;;26.90;99.80;;;;;;5031798;28;20449;-67
2023/05/05 12:48:24;;;;;;;5.57;3.33;;;26.70;99.90;;;;;;5031383;28;20763;-67
2023/05/05 12:50:51;;;;;;;2.73;2.43;;;26.50;99.90;;;;;;5031662;28;20407;-68